createdAt,value
2022-09-12T00:00:17.263Z,15.20
2022-09-12T00:01:17.268Z,15.20
2022-09-12T00:02:17.274Z,15.19
2022-09-12T00:03:17.213Z,15.21
2022-09-12T00:04:17.455Z,15.19
2022-09-12T00:05:17.184Z,15.17
2022-09-12T00:06:22.366Z,15.15
2022-09-12T00:07:17.170Z,15.17
2022-09-12T00:08:17.143Z,15.12
2022-09-12T00:09:17.140Z,15.11
2022-09-12T00:10:17.201Z,15.11
2022-09-12T00:11:17.391Z,15.08
2022-09-12T00:12:17.137Z,15.03
2022-09-12T00:13:17.098Z,15.02
2022-09-12T00:14:17.070Z,14.98
2022-09-12T00:15:17.080Z,14.95
2022-09-12T00:16:17.175Z,14.94
2022-09-12T00:17:17.047Z,14.93
2022-09-12T00:18:17.343Z,14.90
2022-09-12T00:19:17.032Z,14.88
2022-09-12T00:20:17.033Z,14.87
2022-09-12T00:21:17.011Z,14.86
2022-09-12T00:22:16.989Z,14.83
2022-09-12T00:23:16.984Z,14.83
2022-09-12T00:24:16.991Z,14.81
2022-09-12T00:25:17.250Z,14.78
2022-09-12T00:26:16.948Z,14.80
2022-09-12T00:27:16.948Z,14.78
2022-09-12T00:28:16.941Z,14.75
2022-09-12T00:29:16.945Z,14.75
2022-09-12T00:30:16.937Z,14.74
2022-09-12T00:31:16.922Z,14.72
2022-09-12T00:32:17.168Z,14.71
2022-09-12T00:33:16.881Z,14.71
2022-09-12T00:34:16.857Z,14.67
2022-09-12T00:35:16.923Z,14.64
2022-09-12T00:36:16.909Z,14.61
2022-09-12T00:37:16.845Z,14.56
2022-09-12T00:38:16.822Z,14.60
2022-09-12T00:39:17.112Z,14.56
2022-09-12T00:40:16.870Z,14.54
2022-09-12T00:41:16.791Z,14.56
2022-09-12T00:42:16.828Z,14.56
2022-09-12T00:43:16.770Z,14.54
2022-09-12T00:44:16.774Z,14.53
2022-09-12T00:45:16.757Z,14.53
2022-09-12T00:46:17.002Z,14.52
2022-09-12T00:47:16.722Z,14.52
2022-09-12T00:48:16.735Z,14.47
2022-09-12T00:49:16.702Z,14.44
2022-09-12T00:50:16.682Z,14.46
2022-09-12T00:51:16.682Z,14.43
2022-09-12T00:52:16.675Z,14.44
2022-09-12T00:53:16.953Z,14.39
2022-09-12T00:54:16.697Z,14.39
2022-09-12T00:55:16.637Z,14.35
2022-09-12T00:56:16.628Z,14.34
2022-09-12T00:57:16.619Z,14.32
2022-09-12T00:58:16.597Z,14.28
2022-09-12T00:59:16.598Z,14.25
2022-09-12T01:00:16.886Z,14.24
2022-09-12T01:01:16.702Z,14.21
2022-09-12T01:02:16.661Z,14.20
2022-09-12T01:03:16.546Z,14.20
2022-09-12T01:04:16.531Z,14.20
2022-09-12T01:05:16.531Z,14.16
2022-09-12T01:06:16.594Z,14.13
2022-09-12T01:07:16.802Z,14.17
2022-09-12T01:08:16.485Z,14.16
2022-09-12T01:09:16.487Z,14.14
2022-09-12T01:10:16.459Z,14.13
2022-09-12T01:11:16.471Z,14.12
2022-09-12T01:12:16.506Z,14.09
2022-09-12T01:13:16.445Z,14.02
2022-09-12T01:14:16.741Z,14.01
2022-09-12T01:15:16.446Z,13.96
2022-09-12T01:16:16.453Z,13.94
2022-09-12T01:17:16.404Z,13.94
2022-09-12T01:18:16.436Z,13.94
2022-09-12T01:19:16.397Z,13.92
2022-09-12T01:20:16.369Z,13.89
2022-09-12T01:21:16.641Z,13.89
2022-09-12T01:22:16.344Z,13.89
2022-09-12T01:23:16.356Z,13.92
2022-09-12T01:24:16.369Z,13.92
2022-09-12T01:25:16.320Z,13.92
2022-09-12T01:26:16.294Z,13.89
2022-09-12T01:27:16.302Z,13.88
2022-09-12T01:28:16.561Z,13.87
2022-09-12T01:29:16.268Z,13.84
2022-09-12T01:30:16.286Z,13.83
2022-09-12T01:31:16.259Z,13.79
2022-09-12T01:32:16.360Z,13.74
2022-09-12T01:33:16.233Z,13.71
2022-09-12T01:34:16.206Z,13.70
2022-09-12T01:35:16.488Z,13.69
2022-09-12T01:36:16.222Z,13.65
2022-09-12T01:37:16.196Z,13.63
2022-09-12T01:38:16.194Z,13.65
2022-09-12T01:39:16.173Z,13.61
2022-09-12T01:40:16.164Z,13.61
2022-09-12T01:41:16.162Z,13.59
2022-09-12T01:42:16.462Z,13.56
2022-09-12T01:43:16.126Z,13.56
2022-09-12T01:44:16.106Z,13.55
2022-09-12T01:45:16.094Z,13.54
2022-09-12T01:46:16.072Z,13.52
2022-09-12T01:47:16.073Z,13.52
2022-09-12T01:48:16.085Z,13.51
2022-09-12T01:49:16.375Z,13.51
2022-09-12T01:50:16.037Z,13.49
2022-09-12T01:51:16.025Z,13.49
2022-09-12T01:52:16.009Z,13.47
2022-09-12T01:53:16.041Z,13.47
2022-09-12T01:54:16.023Z,13.47
2022-09-12T01:55:15.995Z,13.44
2022-09-12T01:56:16.263Z,13.44
2022-09-12T01:57:15.963Z,13.43
2022-09-12T01:58:15.950Z,13.41
2022-09-12T01:59:15.952Z,13.40
2022-09-12T02:00:15.981Z,13.40
2022-09-12T02:01:15.993Z,13.40
2022-09-12T02:02:15.934Z,13.37
2022-09-12T02:03:16.182Z,13.33
2022-09-12T02:04:15.894Z,13.33
2022-09-12T02:05:15.881Z,13.32
2022-09-12T02:06:15.884Z,13.32
2022-09-12T02:07:15.861Z,13.29
2022-09-12T02:08:15.838Z,13.29
2022-09-12T02:09:15.841Z,13.30
2022-09-12T02:10:16.116Z,13.29
2022-09-12T02:11:15.860Z,13.27
2022-09-12T02:12:15.829Z,13.29
2022-09-12T02:13:15.794Z,13.27
2022-09-12T02:14:15.788Z,13.25
2022-09-12T02:15:15.757Z,13.24
2022-09-12T02:16:15.784Z,13.25
2022-09-12T02:17:16.045Z,13.22
2022-09-12T02:18:15.780Z,13.21
2022-09-12T02:19:15.738Z,13.21
2022-09-12T02:20:31.075Z,13.20
2022-09-12T02:21:15.712Z,13.20
2022-09-12T02:22:15.697Z,13.18
2022-09-12T02:23:15.668Z,13.15
2022-09-12T02:24:15.714Z,13.15
2022-09-12T02:25:15.653Z,13.12
2022-09-12T02:26:15.659Z,13.12
2022-09-12T02:27:15.639Z,13.12
2022-09-12T02:28:15.665Z,13.09
2022-09-12T02:29:15.605Z,13.09
2022-09-12T02:30:15.650Z,13.07
2022-09-12T02:31:15.591Z,13.07
2022-09-12T02:32:15.591Z,13.06
2022-09-12T02:33:15.560Z,13.06
2022-09-12T02:34:15.572Z,13.04
2022-09-12T02:35:15.544Z,13.03
2022-09-12T02:36:15.876Z,13.04
2022-09-12T02:37:15.517Z,13.03
2022-09-12T02:38:15.529Z,13.02
2022-09-12T02:39:15.502Z,13.02
2022-09-12T02:40:15.610Z,13.02
2022-09-12T02:41:15.489Z,13.02
2022-09-12T02:42:15.506Z,12.99
2022-09-12T02:43:15.460Z,13.00
2022-09-12T02:44:15.460Z,12.97
2022-09-12T02:45:15.442Z,12.96
2022-09-12T02:46:15.440Z,12.97
2022-09-12T02:47:15.434Z,12.96
2022-09-12T02:48:15.722Z,12.95
2022-09-12T02:49:15.417Z,12.95
2022-09-12T02:50:15.393Z,12.95
2022-09-12T02:51:15.374Z,12.95
2022-09-12T02:52:15.375Z,12.95
2022-09-12T02:53:15.352Z,12.93
2022-09-12T02:54:15.399Z,12.93
2022-09-12T02:55:15.629Z,12.93
2022-09-12T02:56:15.333Z,12.92
2022-09-12T02:57:17.686Z,12.92
2022-09-12T02:58:15.320Z,12.93
2022-09-12T02:59:15.287Z,12.93
2022-09-12T03:00:15.329Z,12.93
2022-09-12T03:01:15.324Z,12.93
2022-09-12T03:02:15.620Z,12.92
2022-09-12T03:03:15.255Z,12.92
2022-09-12T03:04:15.243Z,12.87
2022-09-12T03:05:15.218Z,12.87
2022-09-12T03:06:15.598Z,12.84
2022-09-12T03:07:15.203Z,12.85
2022-09-12T03:08:15.205Z,12.87
2022-09-12T03:09:15.489Z,12.85
2022-09-12T03:10:15.185Z,12.85
2022-09-12T03:11:15.177Z,12.85
2022-09-12T03:12:15.192Z,12.82
2022-09-12T03:13:15.139Z,12.82
2022-09-12T03:14:15.138Z,12.82
2022-09-12T03:15:15.116Z,12.81
2022-09-12T03:16:15.470Z,12.81
2022-09-12T03:17:15.095Z,12.81
2022-09-12T03:18:15.119Z,12.81
2022-09-12T03:19:15.083Z,12.81
2022-09-12T03:20:15.077Z,12.79
2022-09-12T03:21:15.046Z,12.82
2022-09-12T03:22:15.064Z,12.82
2022-09-12T03:23:15.335Z,12.84
2022-09-12T03:24:15.058Z,12.82
2022-09-12T03:25:15.003Z,12.79
2022-09-12T03:26:15.008Z,12.79
2022-09-12T03:27:14.982Z,12.79
2022-09-12T03:28:14.992Z,12.78
2022-09-12T03:29:14.969Z,12.77
2022-09-12T03:30:15.292Z,12.74
2022-09-12T03:31:14.938Z,12.71
2022-09-12T03:32:14.941Z,12.71
2022-09-12T03:33:14.937Z,12.70
2022-09-12T03:34:14.922Z,12.70
2022-09-12T03:35:14.895Z,12.70
2022-09-12T03:36:14.928Z,12.67
2022-09-12T03:37:15.214Z,12.64
2022-09-12T03:38:14.871Z,12.63
2022-09-12T03:39:14.871Z,12.60
2022-09-12T03:40:14.907Z,12.62
2022-09-12T03:41:14.836Z,12.59
2022-09-12T03:42:14.869Z,12.59
2022-09-12T03:43:14.803Z,12.56
2022-09-12T03:44:15.106Z,12.57
2022-09-12T03:45:14.791Z,12.56
2022-09-12T03:46:14.788Z,12.56
2022-09-12T03:47:14.776Z,12.56
2022-09-12T03:48:14.792Z,12.56
2022-09-12T03:49:14.746Z,12.54
2022-09-12T03:50:14.740Z,12.52
2022-09-12T03:51:14.723Z,12.52
2022-09-12T03:52:14.722Z,12.52
2022-09-12T03:53:17.222Z,12.51
2022-09-12T03:54:14.740Z,12.51
2022-09-12T03:55:14.681Z,12.49
2022-09-12T03:56:14.685Z,12.49
2022-09-12T03:57:14.968Z,12.48
2022-09-12T03:58:14.663Z,12.48
2022-09-12T03:59:14.638Z,12.48
2022-09-12T04:00:19.613Z,12.45
2022-09-12T04:01:14.689Z,12.46
2022-09-12T04:02:14.639Z,12.45
2022-09-12T04:03:14.633Z,12.45
2022-09-12T04:04:14.890Z,12.44
2022-09-12T04:05:14.568Z,12.45
2022-09-12T04:06:14.618Z,12.42
2022-09-12T04:07:14.547Z,12.42
2022-09-12T04:08:14.548Z,12.44
2022-09-12T04:09:14.528Z,12.42
2022-09-12T04:10:16.176Z,12.39
2022-09-12T04:11:14.506Z,12.39
2022-09-12T04:12:14.555Z,12.39
2022-09-12T04:13:14.483Z,12.37
2022-09-12T04:14:14.480Z,12.38
2022-09-12T04:15:14.462Z,12.37
2022-09-12T04:16:14.500Z,12.38
2022-09-12T04:17:14.737Z,12.38
2022-09-12T04:18:14.475Z,12.37
2022-09-12T04:19:14.423Z,12.37
2022-09-12T04:20:14.432Z,12.34
2022-09-12T04:21:14.398Z,12.37
2022-09-12T04:22:14.395Z,12.34
2022-09-12T04:23:14.383Z,12.37
2022-09-12T04:24:14.401Z,12.37
2022-09-12T04:25:14.348Z,12.38
2022-09-12T04:26:14.350Z,12.38
2022-09-12T04:27:14.327Z,12.37
2022-09-12T04:28:14.345Z,12.37
2022-09-12T04:29:14.311Z,12.37
2022-09-12T04:30:14.629Z,12.37
2022-09-12T04:31:14.289Z,12.34
2022-09-12T04:32:14.292Z,12.34
2022-09-12T04:33:14.260Z,12.33
2022-09-12T04:34:14.262Z,12.33
2022-09-12T04:35:14.244Z,12.31
2022-09-12T04:36:14.560Z,12.33
2022-09-12T04:37:14.219Z,12.33
2022-09-12T04:38:14.222Z,12.30
2022-09-12T04:39:14.217Z,12.30
2022-09-12T04:40:14.242Z,12.31
2022-09-12T04:41:14.186Z,12.30
2022-09-12T04:42:14.491Z,12.33
2022-09-12T04:43:14.750Z,12.30
2022-09-12T04:44:14.161Z,12.29
2022-09-12T04:45:14.145Z,12.27
2022-09-12T04:46:14.174Z,12.27
2022-09-12T04:47:14.159Z,12.26
2022-09-12T04:48:14.149Z,12.27
2022-09-12T04:49:14.106Z,12.29
2022-09-12T04:50:14.104Z,12.27
2022-09-12T04:51:14.081Z,12.26
2022-09-12T04:52:14.067Z,12.26
2022-09-12T04:53:14.054Z,12.24
2022-09-12T04:54:14.422Z,12.24
2022-09-12T04:55:21.009Z,12.23
2022-09-12T04:57:29.372Z,12.23
2022-09-12T04:58:30.365Z,12.21
2022-09-12T04:59:30.407Z,12.20
2022-09-12T05:00:30.353Z,12.20
2022-09-12T05:01:30.585Z,12.23
2022-09-12T05:02:30.362Z,12.23
2022-09-12T05:03:30.603Z,12.23
2022-09-12T05:04:30.292Z,12.23
2022-09-12T05:05:30.322Z,12.23
2022-09-12T05:06:30.285Z,12.20
2022-09-12T05:07:30.247Z,12.21
2022-09-12T05:08:30.261Z,12.23
2022-09-12T05:09:30.231Z,12.23
2022-09-12T05:10:30.506Z,12.21
2022-09-12T05:11:46.890Z,12.23
2022-09-12T05:12:30.212Z,12.23
2022-09-12T05:13:30.200Z,12.23
2022-09-12T05:14:30.198Z,12.23
2022-09-12T05:15:30.169Z,12.26
2022-09-12T05:16:30.217Z,12.26
2022-09-12T05:17:30.476Z,12.26
2022-09-12T05:18:30.148Z,12.26
2022-09-12T05:19:30.137Z,12.26
2022-09-12T05:20:30.152Z,12.26
2022-09-12T05:21:30.115Z,12.26
2022-09-12T05:22:30.103Z,12.29
2022-09-12T05:23:30.164Z,12.30
2022-09-12T05:24:30.400Z,12.30
2022-09-12T05:25:30.077Z,12.31
2022-09-12T05:26:30.058Z,12.33
2022-09-12T05:27:30.047Z,12.37
2022-09-12T05:28:30.052Z,12.37
2022-09-12T05:29:30.057Z,12.39
2022-09-12T05:30:30.075Z,12.41
2022-09-12T05:31:30.294Z,12.42
2022-09-12T05:32:30.005Z,12.44
2022-09-12T05:33:30.030Z,12.49
2022-09-12T05:34:29.975Z,12.54
2022-09-12T05:35:30.001Z,12.62
2022-09-12T05:36:29.972Z,12.66
2022-09-12T05:37:29.961Z,12.70
2022-09-12T05:38:30.218Z,12.78
2022-09-12T05:39:29.929Z,12.82
2022-09-12T05:40:29.916Z,12.84
2022-09-12T05:41:29.944Z,12.89
2022-09-12T05:42:29.898Z,12.95
2022-09-12T05:43:29.947Z,12.96
2022-09-12T05:44:29.878Z,13.00
2022-09-12T05:45:30.204Z,13.02
2022-09-12T05:46:29.871Z,13.06
2022-09-12T05:47:29.869Z,13.09
2022-09-12T05:48:29.825Z,13.15
2022-09-12T05:49:29.821Z,13.20
2022-09-12T05:50:29.809Z,13.25
2022-09-12T05:51:29.812Z,13.32
2022-09-12T05:52:29.793Z,13.36
2022-09-12T05:53:29.829Z,13.36
2022-09-12T05:54:31.638Z,13.36
2022-09-12T05:55:29.771Z,13.38
2022-09-12T05:56:29.748Z,13.37
2022-09-12T05:57:30.027Z,13.37
2022-09-12T05:58:29.716Z,13.33
2022-09-12T05:59:29.757Z,13.36
2022-09-12T06:00:33.397Z,13.37
2022-09-12T06:01:29.758Z,13.38
2022-09-12T06:02:29.720Z,13.40
2022-09-12T06:03:29.694Z,13.43
2022-09-12T06:04:29.658Z,13.47
2022-09-12T06:05:29.717Z,13.51
2022-09-12T06:06:29.646Z,13.55
2022-09-12T06:07:29.636Z,13.59
2022-09-12T06:08:29.614Z,13.63
2022-09-12T06:09:29.639Z,13.71
2022-09-12T06:10:29.627Z,13.79
2022-09-12T06:11:29.629Z,13.84
2022-09-12T06:12:29.572Z,13.88
2022-09-12T06:13:29.573Z,13.91
2022-09-12T06:14:29.560Z,13.95
2022-09-12T06:15:29.844Z,14.01
2022-09-12T06:16:29.580Z,14.07
2022-09-12T06:17:29.572Z,14.09
2022-09-12T06:18:29.508Z,14.10
2022-09-12T06:19:29.504Z,14.13
2022-09-12T06:20:29.494Z,14.17
2022-09-12T06:21:29.496Z,14.20
2022-09-12T06:22:29.800Z,14.25
2022-09-12T06:23:29.506Z,14.29
2022-09-12T06:24:29.464Z,14.35
2022-09-12T06:25:29.450Z,14.42
2022-09-12T06:26:29.426Z,14.46
2022-09-12T06:27:29.432Z,14.50
2022-09-12T06:28:29.416Z,14.61
2022-09-12T06:29:29.725Z,14.65
2022-09-12T06:30:29.437Z,14.72
2022-09-12T06:31:29.392Z,14.72
2022-09-12T06:32:29.374Z,14.80
2022-09-12T06:33:29.370Z,14.78
2022-09-12T06:34:29.371Z,14.74
2022-09-12T06:35:29.396Z,14.75
2022-09-12T06:36:29.600Z,14.83
2022-09-12T06:37:29.334Z,14.87
2022-09-12T06:38:29.304Z,14.90
2022-09-12T06:39:29.305Z,14.98
2022-09-12T06:40:29.295Z,15.05
2022-09-12T06:41:29.315Z,15.13
2022-09-12T06:42:29.287Z,15.19
2022-09-12T06:43:29.550Z,15.28
2022-09-12T06:44:29.254Z,15.35
2022-09-12T06:45:29.255Z,15.42
2022-09-12T06:46:29.285Z,15.48
2022-09-12T06:47:29.265Z,15.56
2022-09-12T06:48:29.204Z,15.60
2022-09-12T06:49:29.210Z,15.72
2022-09-12T06:50:29.185Z,15.79
2022-09-12T06:51:29.190Z,15.81
2022-09-12T06:52:29.186Z,15.86
2022-09-12T06:53:29.200Z,15.86
2022-09-12T06:54:29.145Z,15.74
2022-09-12T06:55:29.141Z,15.66
2022-09-12T06:56:29.405Z,15.51
2022-09-12T06:57:29.134Z,15.52
2022-09-12T06:58:29.126Z,15.52
2022-09-12T06:59:29.137Z,15.48
2022-09-12T07:00:29.092Z,15.46
2022-09-12T07:01:29.160Z,15.51
2022-09-12T07:02:29.095Z,15.56
2022-09-12T07:03:29.357Z,15.56
2022-09-12T07:04:29.066Z,15.61
2022-09-12T07:05:29.117Z,15.68
2022-09-12T07:06:29.013Z,15.79
2022-09-12T07:07:29.022Z,15.89
2022-09-12T07:08:29.024Z,16.04
2022-09-12T07:09:29.001Z,16.18
2022-09-12T07:10:28.991Z,16.26
2022-09-12T07:11:29.017Z,16.33
2022-09-12T07:12:28.949Z,16.40
2022-09-12T07:13:28.963Z,16.45
2022-09-12T07:14:28.950Z,16.55
2022-09-12T07:15:28.928Z,16.63
2022-09-12T07:16:30.096Z,16.71
2022-09-12T07:17:28.976Z,16.78
2022-09-12T07:18:29.135Z,16.81
2022-09-12T07:19:28.893Z,16.83
2022-09-12T07:20:28.883Z,16.86
2022-09-12T07:21:28.865Z,16.85
2022-09-12T07:22:28.879Z,16.92
2022-09-12T07:23:28.886Z,16.99
2022-09-12T07:24:28.832Z,17.06
2022-09-12T07:25:28.841Z,17.08
2022-09-12T07:26:28.804Z,17.11
2022-09-12T07:27:28.822Z,17.15
2022-09-12T07:28:29.070Z,17.23
2022-09-12T07:29:37.638Z,17.30
2022-09-12T07:30:28.834Z,17.36
2022-09-12T07:31:28.777Z,17.40
2022-09-12T07:32:28.744Z,17.44
2022-09-12T07:33:28.765Z,17.47
2022-09-12T07:34:28.743Z,17.51
2022-09-12T07:35:28.781Z,17.54
2022-09-12T07:36:28.704Z,17.55
2022-09-12T07:37:28.710Z,17.59
2022-09-12T07:38:28.688Z,17.64
2022-09-12T07:39:28.680Z,17.70
2022-09-12T07:40:28.679Z,17.71
2022-09-12T07:41:28.711Z,17.74
2022-09-12T07:42:28.689Z,17.76
2022-09-12T07:43:28.652Z,17.70
2022-09-12T07:44:28.624Z,17.69
2022-09-12T07:45:28.609Z,17.70
2022-09-12T07:46:28.903Z,17.76
2022-09-12T07:47:28.632Z,17.81
2022-09-12T07:48:28.641Z,17.87
2022-09-12T07:49:28.584Z,17.91
2022-09-12T07:50:28.549Z,17.99
2022-09-12T07:51:28.566Z,18.02
2022-09-12T07:52:28.641Z,17.78
2022-09-12T07:53:28.572Z,17.64
2022-09-12T07:54:28.563Z,17.43
2022-09-12T07:55:28.516Z,17.35
2022-09-12T07:56:30.654Z,17.38
2022-09-12T07:57:28.500Z,17.43
2022-09-12T07:58:28.494Z,17.48
2022-09-12T07:59:50.935Z,17.55
2022-09-12T08:00:28.478Z,17.47
2022-09-12T08:01:28.507Z,17.38
2022-09-12T08:02:28.513Z,17.26
2022-09-12T08:03:28.448Z,17.14
2022-09-12T08:04:28.425Z,17.07
2022-09-12T08:05:28.730Z,17.11
2022-09-12T08:06:28.390Z,17.13
2022-09-12T08:07:28.389Z,17.20
2022-09-12T08:08:28.369Z,17.33
2022-09-12T08:09:28.377Z,17.43
2022-09-12T08:10:28.355Z,17.48
2022-09-12T08:11:28.393Z,17.55
2022-09-12T08:12:28.338Z,17.63
2022-09-12T08:13:28.327Z,17.73
2022-09-12T08:14:28.321Z,17.70
2022-09-12T08:15:28.356Z,17.67
2022-09-12T08:16:28.320Z,17.66
2022-09-12T08:17:28.628Z,17.69
2022-09-12T08:18:28.287Z,17.67
2022-09-12T08:19:28.273Z,17.64
2022-09-12T08:20:28.594Z,17.67
2022-09-12T08:21:28.259Z,17.74
2022-09-12T08:22:28.247Z,17.85
2022-09-12T08:23:28.274Z,17.91
2022-09-12T08:24:28.477Z,17.91
2022-09-12T08:25:28.213Z,17.94
2022-09-12T08:26:28.192Z,18.02
2022-09-12T08:27:28.184Z,18.09
2022-09-12T08:28:28.154Z,18.21
2022-09-12T08:29:28.206Z,18.27
2022-09-12T08:30:28.158Z,18.27
2022-09-12T08:31:28.429Z,18.31
2022-09-12T08:32:28.126Z,18.40
2022-09-12T08:33:28.115Z,18.47
2022-09-12T08:34:28.108Z,18.54
2022-09-12T08:35:28.136Z,18.64
2022-09-12T08:36:28.090Z,18.68
2022-09-12T08:37:28.080Z,18.74
2022-09-12T08:38:28.354Z,18.80
2022-09-12T08:39:28.048Z,18.83
2022-09-12T08:40:28.020Z,18.82
2022-09-12T08:41:28.068Z,18.82
2022-09-12T08:42:28.053Z,18.73
2022-09-12T08:43:28.011Z,18.65
2022-09-12T08:44:28.026Z,18.72
2022-09-12T08:45:27.988Z,18.68
2022-09-12T08:46:28.022Z,18.74
2022-09-12T08:47:28.045Z,18.82
2022-09-12T08:48:27.955Z,18.73
2022-09-12T08:49:27.959Z,18.68
2022-09-12T08:50:27.990Z,18.68
2022-09-12T08:51:28.225Z,18.68
2022-09-12T08:52:27.935Z,18.68
2022-09-12T08:53:27.957Z,18.76
2022-09-12T08:54:27.881Z,18.91
2022-09-12T08:55:27.873Z,19.08
2022-09-12T08:56:31.570Z,19.21
2022-09-12T08:57:27.883Z,19.31
2022-09-12T08:58:28.133Z,19.29
2022-09-12T08:59:27.917Z,19.32
2022-09-12T09:00:27.830Z,19.43
2022-09-12T09:01:27.915Z,19.53
2022-09-12T09:02:27.875Z,19.66
2022-09-12T09:03:27.799Z,19.65
2022-09-12T09:04:28.924Z,19.57
2022-09-12T09:05:28.112Z,19.61
2022-09-12T09:06:27.772Z,19.69
2022-09-12T09:07:27.757Z,19.79
2022-09-12T09:08:27.760Z,19.91
2022-09-12T09:09:28.714Z,20.06
2022-09-12T09:10:27.716Z,20.28
2022-09-12T09:11:27.764Z,20.43
2022-09-12T09:12:27.978Z,20.47
2022-09-12T09:13:27.717Z,20.59
2022-09-12T09:14:27.682Z,20.72
2022-09-12T09:15:27.699Z,20.89
2022-09-12T09:16:27.656Z,21.11
2022-09-12T09:17:27.722Z,21.30
2022-09-12T09:18:27.653Z,21.41
2022-09-12T09:19:27.920Z,21.51
2022-09-12T09:20:27.640Z,21.66
2022-09-12T09:21:27.630Z,21.76
2022-09-12T09:22:27.586Z,21.91
2022-09-12T09:23:27.642Z,21.94
2022-09-12T09:24:27.573Z,21.99
2022-09-12T09:25:27.581Z,21.94
2022-09-12T09:26:27.571Z,21.91
2022-09-12T09:27:40.384Z,21.83
2022-09-12T09:28:27.533Z,21.88
2022-09-12T09:29:27.562Z,21.90
2022-09-12T09:30:27.515Z,21.88
2022-09-12T09:31:27.553Z,21.88
2022-09-12T09:32:27.775Z,21.92
2022-09-12T09:33:27.485Z,21.94
2022-09-12T09:34:27.474Z,21.98
2022-09-12T09:35:27.535Z,22.10
2022-09-12T09:36:27.481Z,22.29
2022-09-12T09:37:27.464Z,22.35
2022-09-12T09:38:27.437Z,22.46
2022-09-12T09:39:27.722Z,22.56
2022-09-12T09:40:27.422Z,22.74
2022-09-12T09:41:27.470Z,22.94
2022-09-12T09:42:27.407Z,23.09
2022-09-12T09:43:27.416Z,23.24
2022-09-12T09:44:27.357Z,23.47
2022-09-12T09:45:27.383Z,23.71
2022-09-12T09:46:27.720Z,23.76
2022-09-12T09:47:27.396Z,23.68
2022-09-12T09:48:27.329Z,23.75
2022-09-12T09:49:27.305Z,24.01
2022-09-12T09:50:27.313Z,24.29
2022-09-12T09:51:27.288Z,24.39
2022-09-12T09:52:27.304Z,24.64
2022-09-12T09:53:27.604Z,24.80
2022-09-12T09:54:27.279Z,25.06
2022-09-12T09:55:27.276Z,25.39
2022-09-12T09:56:27.236Z,25.72
2022-09-12T09:57:27.221Z,25.54
2022-09-12T09:58:27.226Z,25.53
2022-09-12T09:59:27.241Z,25.65
2022-09-12T10:00:27.508Z,25.87
2022-09-12T10:01:27.226Z,26.09
2022-09-12T10:02:27.233Z,26.17
2022-09-12T10:03:27.173Z,26.08
2022-09-12T10:04:27.175Z,25.84
2022-09-12T10:05:27.176Z,24.92
2022-09-12T10:06:27.183Z,24.10
2022-09-12T10:07:27.409Z,23.80
2022-09-12T10:08:27.119Z,23.76
2022-09-12T10:09:27.111Z,23.58
2022-09-12T10:10:27.101Z,23.15
2022-09-12T10:11:27.259Z,23.08
2022-09-12T10:12:27.089Z,23.14
2022-09-12T10:13:27.087Z,23.22
2022-09-12T10:14:27.357Z,23.20
2022-09-12T10:15:27.062Z,23.32
2022-09-12T10:16:27.103Z,23.53
2022-09-12T10:17:29.505Z,23.79
2022-09-12T10:18:27.031Z,24.02
2022-09-12T10:19:26.998Z,24.12
2022-09-12T10:20:27.021Z,23.90
2022-09-12T10:21:27.268Z,23.52
2022-09-12T10:22:26.973Z,23.50
2022-09-12T10:23:27.007Z,23.35
2022-09-12T10:24:26.970Z,23.39
2022-09-12T10:25:26.965Z,23.76
2022-09-12T10:26:26.969Z,24.27
2022-09-12T10:27:26.922Z,24.76
2022-09-12T10:28:27.248Z,25.24
2022-09-12T10:29:26.945Z,25.83
2022-09-12T10:30:26.945Z,26.39
2022-09-12T10:31:26.876Z,26.43
2022-09-12T10:32:30.615Z,26.04
2022-09-12T10:33:26.854Z,25.32
2022-09-12T10:34:26.880Z,24.92
2022-09-12T10:35:26.907Z,24.54
2022-09-12T10:36:26.852Z,24.37
2022-09-12T10:37:26.842Z,24.34
2022-09-12T10:38:26.837Z,24.47
2022-09-12T10:39:26.802Z,24.67
2022-09-12T10:40:26.821Z,25.00
2022-09-12T10:41:26.830Z,25.42
2022-09-12T10:42:26.777Z,25.65
2022-09-12T10:43:26.819Z,25.62
2022-09-12T10:44:26.759Z,25.71
2022-09-12T10:45:26.738Z,25.86
2022-09-12T10:46:26.809Z,25.86
2022-09-12T10:47:26.790Z,25.69
2022-09-12T10:48:26.738Z,25.80
2022-09-12T10:49:26.702Z,25.90
2022-09-12T10:50:26.773Z,25.90
2022-09-12T10:51:26.673Z,25.83
2022-09-12T10:52:26.715Z,25.75
2022-09-12T10:53:31.002Z,25.82
2022-09-12T10:54:26.651Z,26.04
2022-09-12T10:55:26.635Z,26.22
2022-09-12T10:56:26.651Z,26.18
2022-09-12T10:57:26.619Z,26.08
2022-09-12T10:58:26.651Z,26.08
2022-09-12T10:59:26.617Z,26.15
2022-09-12T11:00:26.615Z,26.25
2022-09-12T11:01:26.669Z,26.39
2022-09-12T11:02:26.635Z,26.27
2022-09-12T11:03:26.555Z,26.24
2022-09-12T11:04:26.554Z,25.91
2022-09-12T11:05:26.843Z,25.56
2022-09-12T11:06:26.532Z,25.25
2022-09-12T11:07:26.507Z,25.07
2022-09-12T11:08:26.545Z,25.10
2022-09-12T11:09:26.510Z,25.09
2022-09-12T11:10:26.490Z,25.32
2022-09-12T11:11:26.530Z,25.67
2022-09-12T11:12:26.752Z,25.97
2022-09-12T11:13:26.462Z,26.04
2022-09-12T11:14:26.456Z,26.01
2022-09-12T11:15:26.436Z,25.99
2022-09-12T11:16:26.430Z,26.05
2022-09-12T11:17:26.438Z,26.01
2022-09-12T11:18:26.403Z,25.72
2022-09-12T11:19:26.703Z,25.61
2022-09-12T11:20:26.378Z,25.93
2022-09-12T11:21:26.364Z,26.37
2022-09-12T11:22:31.099Z,26.39
2022-09-12T11:23:26.375Z,25.65
2022-09-12T11:24:26.368Z,25.47
2022-09-12T11:25:26.337Z,25.64
2022-09-12T11:26:26.320Z,25.74
2022-09-12T11:27:26.323Z,26.12
2022-09-12T11:28:26.316Z,26.28
2022-09-12T11:29:26.319Z,26.39
2022-09-12T11:30:26.276Z,26.74
2022-09-12T11:31:26.275Z,26.47
2022-09-12T11:32:26.553Z,26.49
2022-09-12T11:33:26.256Z,26.76
2022-09-12T11:34:26.249Z,27.16
2022-09-12T11:35:26.294Z,27.35
2022-09-12T11:36:26.227Z,27.32
2022-09-12T11:37:26.231Z,27.21
2022-09-12T11:38:26.215Z,26.96
2022-09-12T11:39:26.462Z,27.11
2022-09-12T11:40:26.216Z,27.28
2022-09-12T11:41:26.227Z,27.39
2022-09-12T11:42:26.185Z,27.71
2022-09-12T11:43:26.167Z,27.79
2022-09-12T11:44:26.153Z,28.11
2022-09-12T11:45:26.120Z,28.26
2022-09-12T11:46:26.463Z,28.26
2022-09-12T11:47:26.152Z,28.09
2022-09-12T11:48:26.126Z,28.07
2022-09-12T11:49:26.077Z,28.14
2022-09-12T11:50:26.092Z,28.28
2022-09-12T11:51:26.070Z,28.54
2022-09-12T11:52:26.050Z,28.96
2022-09-12T11:53:26.363Z,29.34
2022-09-12T11:54:26.034Z,29.57
2022-09-12T11:55:26.032Z,29.28
2022-09-12T11:56:26.036Z,28.72
2022-09-12T11:57:26.025Z,27.76
2022-09-12T11:58:26.014Z,27.53
2022-09-12T11:59:26.012Z,27.48
2022-09-12T12:00:26.280Z,27.74
2022-09-12T12:01:25.972Z,28.26
2022-09-12T12:02:26.006Z,28.81
2022-09-12T12:03:25.961Z,28.65
2022-09-12T12:04:25.971Z,28.47
2022-09-12T12:05:25.973Z,27.19
2022-09-12T12:06:25.921Z,26.27
2022-09-12T12:07:26.185Z,25.65
2022-09-12T12:08:25.931Z,25.89
2022-09-12T12:09:25.871Z,26.17
2022-09-12T12:10:25.869Z,26.76
2022-09-12T12:11:25.900Z,27.31
2022-09-12T12:12:25.857Z,27.48
2022-09-12T12:13:25.879Z,27.67
2022-09-12T12:14:25.857Z,27.31
2022-09-12T12:15:25.807Z,27.39
2022-09-12T12:16:25.801Z,27.99
2022-09-12T12:17:25.864Z,28.51
2022-09-12T12:18:25.819Z,28.82
2022-09-12T12:19:25.759Z,28.77
2022-09-12T12:20:26.091Z,28.80
2022-09-12T12:21:25.791Z,28.97
2022-09-12T12:22:25.767Z,28.72
2022-09-12T12:23:25.766Z,28.65
2022-09-12T12:24:25.738Z,28.77
2022-09-12T12:25:29.658Z,29.03
2022-09-12T12:26:26.029Z,29.10
2022-09-12T12:27:25.702Z,29.35
2022-09-12T12:28:25.705Z,29.77
2022-09-12T12:29:25.720Z,30.24
2022-09-12T12:30:25.724Z,30.53
2022-09-12T12:31:25.681Z,30.61
2022-09-12T12:32:25.665Z,30.49
2022-09-12T12:33:25.696Z,30.36
2022-09-12T12:34:25.682Z,28.91
2022-09-12T12:35:25.729Z,28.28
2022-09-12T12:36:25.645Z,27.76
2022-09-12T12:37:25.607Z,27.66
2022-09-12T12:38:25.878Z,27.46
2022-09-12T12:39:25.601Z,27.20
2022-09-12T12:40:25.641Z,26.84
2022-09-12T12:41:25.609Z,27.35
2022-09-12T12:42:25.554Z,27.35
2022-09-12T12:43:25.558Z,27.67
2022-09-12T12:44:25.531Z,27.43
2022-09-12T12:45:25.786Z,26.96
2022-09-12T12:46:25.560Z,26.59
2022-09-12T12:47:26.303Z,25.93
2022-09-12T12:48:25.505Z,25.72
2022-09-12T12:49:25.479Z,25.82
2022-09-12T12:50:25.460Z,25.77
2022-09-12T12:51:25.476Z,26.04
2022-09-12T12:52:25.752Z,26.32
2022-09-12T12:53:25.471Z,26.69